Time;durP1;ratioP1;P1;durP2;ratioP2;P2;SDS_P1;SDS_P2;PMS_P1;PMS_P2;Temp;Humidity;BMP_temperature;BMP_pressure;BME280_temperature;BME280_humidity;BME280_pressure;Samples;Min_cycle;Max_cycle;Signal;HPM_P1;HPM_P2
2022/06/16 00:00:38;;;;;;;4.03;2.12;;;;;;;21.53;41.62;99892.19;4447911;32;32213;-64
2022/06/16 00:03:07;;;;;;;4.40;1.80;;;;;;;21.52;41.59;99886.94;4453238;32;34629;-65
2022/06/16 00:05:37;;;;;;;4.85;2.08;;;;;;;21.47;41.74;99892.91;4452212;32;33965;-63
2022/06/16 00:08:07;;;;;;;3.70;2.15;;;;;;;21.45;41.77;99889.53;4457359;32;33558;-65
2022/06/16 00:10:36;;;;;;;3.80;2.03;;;;;;;21.52;41.68;99890.50;4445868;32;34604;-63
2022/06/16 00:13:04;;;;;;;4.03;2.28;;;;;;;21.50;41.96;99891.69;4447834;32;34933;-62
2022/06/16 00:15:32;;;;;;;4.72;2.17;;;;;;;21.44;41.87;99890.53;4452847;32;34034;-65
2022/06/16 00:18:00;;;;;;;4.70;2.30;;;;;;;21.48;41.77;99881.00;4459438;32;31921;-64
2022/06/16 00:20:27;;;;;;;5.45;2.15;;;;;;;21.37;42.26;99882.25;4464282;32;34350;-63
2022/06/16 00:22:55;;;;;;;4.80;2.17;;;;;;;21.33;42.33;99875.44;4455064;32;33342;-63
2022/06/16 00:25:23;;;;;;;3.87;2.08;;;;;;;21.35;42.15;99875.31;4452826;32;34247;-66
2022/06/16 00:27:50;;;;;;;5.07;2.20;;;;;;;21.45;42.04;99875.91;4443478;32;36162;-64
2022/06/16 00:30:18;;;;;;;4.25;2.10;;;;;;;21.49;41.89;99879.97;4451032;32;32701;-65
2022/06/16 00:32:46;;;;;;;3.55;1.95;;;;;;;21.50;42.04;99878.94;4435823;32;35270;-65
2022/06/16 00:35:13;;;;;;;5.37;2.20;;;;;;;21.56;41.98;99875.47;4458502;32;33810;-64
2022/06/16 00:37:41;;;;;;;4.97;2.70;;;;;;;21.58;41.80;99876.16;4462621;32;34792;-65
2022/06/16 00:40:09;;;;;;;6.03;2.12;;;;;;;21.50;42.07;99870.75;4452557;32;34643;-64
2022/06/16 00:42:37;;;;;;;5.82;2.40;;;;;;;21.47;42.31;99867.56;4451240;32;34132;-62
2022/06/16 00:45:42;;;;;;;5.43;2.37;;;;;;;21.38;42.33;99869.50;4445424;32;34069;-63
2022/06/16 00:48:15;;;;;;;5.37;1.97;;;;;;;21.34;42.75;99865.41;4442935;32;33578;-63
2022/06/16 00:50:44;;;;;;;4.65;2.20;;;;;;;21.24;42.86;99862.94;4449050;32;33807;-65
2022/06/16 00:53:12;;;;;;;6.68;2.55;;;;;;;21.21;43.12;99862.44;4460736;32;33430;-64
2022/06/16 00:55:39;;;;;;;7.43;2.42;;;;;;;21.24;42.75;99862.94;4448353;32;34124;-64
2022/06/16 00:58:09;;;;;;;5.87;2.50;;;;;;;21.14;43.33;99863.16;4461184;32;34062;-66
2022/06/16 01:03:12;;;;;;;5.70;2.55;;;;;;;21.10;43.12;99859.13;4443729;32;32759;-63
2022/06/16 01:05:42;;;;;;;6.35;2.72;;;;;;;21.07;43.32;99848.59;4456153;32;34155;-63
2022/06/16 01:08:09;;;;;;;4.65;2.10;;;;;;;20.98;43.83;99851.53;4454026;32;33570;-63
2022/06/16 01:10:42;;;;;;;5.25;2.37;;;;;;;20.87;43.87;99848.19;4447897;32;33255;-63
2022/06/16 01:13:41;;;;;;;5.05;2.40;;;;;;;20.73;44.11;99842.66;4450066;32;34024;-62
2022/06/16 01:16:23;;;;;;;4.78;2.40;;;;;;;20.65;44.45;99835.41;4446851;32;35292;-64
2022/06/16 01:19:36;;;;;;;4.72;2.40;;;;;;;20.39;45.41;99841.09;4441129;32;33729;-63
2022/06/16 01:22:17;;;;;;;4.12;2.47;;;;;;;20.43;45.15;99834.28;4444062;32;34857;-62
2022/06/16 01:24:49;;;;;;;5.40;2.70;;;;;;;20.25;45.44;99827.19;4447757;32;34341;-64
2022/06/16 01:27:46;;;;;;;3.83;1.98;;;;;;;19.87;46.42;99828.84;4436995;32;35567;-62
2022/06/16 01:30:16;;;;;;;3.92;2.33;;;;;;;19.86;46.75;99827.13;4440184;32;35076;-65
2022/06/16 01:33:00;;;;;;;6.40;2.60;;;;;;;19.78;47.08;99830.72;4442185;32;32087;-63
2022/06/16 01:35:32;;;;;;;5.62;3.10;;;;;;;20.02;46.38;99828.97;4446408;32;35027;-64
2022/06/16 01:38:22;;;;;;;4.07;2.50;;;;;;;20.22;46.15;99823.97;4448369;32;33690;-65
2022/06/16 01:41:08;;;;;;;5.00;2.53;;;;;;;20.25;46.42;99826.34;4447468;32;33420;-63
2022/06/16 01:43:40;;;;;;;5.45;2.60;;;;;;;20.19;46.44;99827.03;4445354;32;33745;-64
2022/06/16 01:46:21;;;;;;;4.28;2.95;;;;;;;20.18;46.49;99820.75;4449237;32;35001;-62
2022/06/16 01:48:54;;;;;;;7.55;2.80;;;;;;;19.98;47.08;99831.19;4449201;32;33820;-63
2022/06/16 01:51:35;;;;;;;5.07;2.83;;;;;;;20.08;46.76;99824.72;4448815;32;34722;-62
2022/06/16 01:54:08;;;;;;;4.90;2.62;;;;;;;20.22;46.36;99830.28;4446706;32;33531;-64
2022/06/16 01:56:57;;;;;;;5.00;2.87;;;;;;;20.20;46.36;99824.16;4446391;32;33769;-63
2022/06/16 01:59:30;;;;;;;5.45;2.75;;;;;;;20.28;46.21;99819.72;4444550;32;33084;-62
2022/06/16 02:02:02;;;;;;;6.00;2.80;;;;;;;20.39;46.02;99811.19;4450020;32;33310;-64
2022/06/16 02:04:53;;;;;;;5.35;2.70;;;;;;;20.43;45.92;99815.25;4445849;32;32395;-62
2022/06/16 02:07:25;;;;;;;4.93;2.70;;;;;;;20.46;46.19;99814.91;4445582;32;35212;-62
2022/06/16 02:09:56;;;;;;;5.93;2.95;;;;;;;20.53;45.89;99815.91;4448413;32;34159;-63
2022/06/16 02:15:23;;;;;;;5.80;2.70;;;;;;;20.55;45.90;99813.03;4447354;32;34028;-61
2022/06/16 02:17:52;;;;;;;6.40;2.65;;;;;;;20.52;45.72;99813.38;4438602;32;35034;-64
2022/06/16 02:20:20;;;;;;;4.95;3.10;;;;;;;20.45;45.93;99819.50;4448061;32;33714;-63
2022/06/16 02:22:48;;;;;;;5.97;2.70;;;;;;;20.41;45.83;99814.56;4446883;32;34202;-62
2022/06/16 02:25:15;;;;;;;5.12;2.72;;;;;;;20.31;46.19;99819.38;4447558;32;32617;-64
2022/06/16 02:27:43;;;;;;;6.35;2.92;;;;;;;20.31;45.95;99812.06;4448421;32;33645;-61
2022/06/16 02:30:12;;;;;;;5.18;2.85;;;;;;;20.08;46.73;99813.84;4449080;32;34177;-62
2022/06/16 02:33:00;;;;;;;9.50;3.00;;;;;;;20.06;47.18;99814.00;4448750;32;33296;-63
2022/06/16 02:35:34;;;;;;;5.03;2.83;;;;;;;20.19;46.46;99811.63;4447678;32;33629;-63
2022/06/16 02:38:27;;;;;;;5.80;3.17;;;;;;;20.11;46.84;99814.34;4445504;32;33986;-62
2022/06/16 02:40:55;;;;;;;6.68;2.85;;;;;;;20.16;46.86;99816.53;4450149;32;32786;-61
2022/06/16 02:43:38;;;;;;;6.62;3.20;;;;;;;20.18;46.87;99817.19;4447821;32;33579;-61
2022/06/16 02:46:25;;;;;;;4.70;2.72;;;;;;;20.20;46.95;99812.47;4449443;32;34980;-64
2022/06/16 02:49:14;;;;;;;8.15;3.33;;;;;;;20.33;46.48;99814.62;4450700;32;33776;-63
2022/06/16 02:51:42;;;;;;;5.12;2.85;;;;;;;20.35;46.31;99817.97;4434318;32;33759;-62
2022/06/16 02:54:20;;;;;;;4.78;2.65;;;;;;;20.29;46.51;99824.13;4439609;32;34664;-62
2022/06/16 02:57:24;;;;;;;6.62;2.70;;;;;;;20.29;46.54;99825.00;4449720;32;34047;-62
2022/06/16 02:59:57;;;;;;;5.70;3.28;;;;;;;20.22;46.95;99826.69;4444731;32;34131;-60
2022/06/16 03:02:25;;;;;;;6.78;2.90;;;;;;;20.16;47.04;99816.53;4447323;32;35178;-62
2022/06/16 03:04:57;;;;;;;5.30;2.90;;;;;;;20.25;46.69;99823.63;4447828;32;33619;-61
2022/06/16 03:07:25;;;;;;;6.47;3.22;;;;;;;20.21;46.78;99817.69;4449741;32;36435;-63
2022/06/16 03:09:54;;;;;;;6.28;3.35;;;;;;;20.38;46.54;99823.91;4449868;32;34086;-63
2022/06/16 03:12:22;;;;;;;5.50;3.00;;;;;;;20.38;46.55;99820.34;4449175;32;34147;-61
2022/06/16 03:14:50;;;;;;;5.03;3.20;;;;;;;20.37;46.67;99813.22;4446611;32;34501;-62
2022/06/16 03:17:18;;;;;;;6.40;3.00;;;;;;;20.41;46.73;99822.72;4449172;32;33789;-62
2022/06/16 03:19:47;;;;;;;4.87;2.75;;;;;;;20.47;46.47;99819.28;4447097;32;34140;-65
2022/06/16 03:22:15;;;;;;;4.65;3.03;;;;;;;20.46;46.56;99817.63;4450160;32;35359;-62
2022/06/16 03:24:42;;;;;;;6.45;3.08;;;;;;;20.44;46.70;99825.09;4448302;32;33492;-62
2022/06/16 03:27:11;;;;;;;5.45;3.47;;;;;;;20.54;46.65;99822.19;4448401;32;34630;-62
2022/06/16 03:29:39;;;;;;;6.53;3.37;;;;;;;20.58;46.40;99816.22;4448349;32;34923;-63
2022/06/16 03:32:09;;;;;;;8.15;3.17;;;;;;;20.69;46.10;99810.37;4449814;32;33966;-63
2022/06/16 03:34:37;;;;;;;6.10;3.50;;;;;;;20.55;46.90;99823.91;4447488;32;33532;-61
2022/06/16 03:37:06;;;;;;;6.15;2.97;;;;;;;20.58;46.73;99823.56;4449403;32;32541;-65
2022/06/16 03:39:34;;;;;;;7.15;3.45;;;;;;;20.66;46.49;99818.06;4446159;32;33803;-61
2022/06/16 03:42:02;;;;;;;4.85;2.90;;;;;;;20.78;46.36;99830.22;4449659;32;33668;-62
2022/06/16 03:44:30;;;;;;;5.60;3.35;;;;;;;20.81;46.44;99820.88;4448321;32;32488;-66
2022/06/16 03:46:59;;;;;;;5.57;3.33;;;;;;;20.84;46.52;99824.06;4449023;32;33659;-63
2022/06/16 03:49:27;;;;;;;6.05;3.22;;;;;;;20.68;47.12;99821.44;4449857;32;33882;-62
2022/06/16 03:51:54;;;;;;;5.55;3.00;;;;;;;21.00;46.31;99819.56;4449947;32;32718;-63
2022/06/16 03:54:24;;;;;;;6.18;3.33;;;;;;;21.05;46.09;99817.13;4447116;32;33591;-62
2022/06/16 03:56:52;;;;;;;8.13;3.50;;;;;;;21.10;45.92;99818.28;4447495;32;32651;-62
2022/06/16 03:59:21;;;;;;;6.15;3.55;;;;;;;21.03;46.44;99819.22;4446431;32;36416;-63
2022/06/16 04:01:49;;;;;;;6.32;3.12;;;;;;;21.08;46.92;99830.38;4448986;32;34257;-62
2022/06/16 04:04:25;;;;;;;6.07;3.03;;;;;;;21.11;46.46;99828.13;4447974;32;32241;-63
2022/06/16 04:06:52;;;;;;;7.32;3.53;;;;;;;21.34;46.14;99832.75;4449494;32;33848;-65
2022/06/16 04:09:21;;;;;;;6.12;2.95;;;;;;;21.45;45.87;99837.81;4448103;32;32699;-65
2022/06/16 04:11:49;;;;;;;6.15;3.67;;;;;;;21.53;46.12;99839.59;4447697;32;33864;-62
2022/06/16 04:14:18;;;;;;;5.72;3.33;;;;;;;21.58;46.07;99839.91;4447681;32;33430;-64
2022/06/16 04:16:49;;;;;;;6.20;3.62;;;;;;;21.65;46.03;99834.56;4447701;32;35053;-62
2022/06/16 04:19:21;;;;;;;5.93;3.42;;;;;;;21.82;45.63;99844.28;4446878;32;33651;-62
2022/06/16 04:21:51;;;;;;;6.22;3.75;;;;;;;21.82;46.21;99853.28;4447382;32;34453;-64
2022/06/16 04:24:21;;;;;;;6.78;3.42;;;;;;;21.89;45.92;99853.38;4450384;32;33647;-65
2022/06/16 04:26:51;;;;;;;7.93;3.80;;;;;;;22.02;46.05;99844.56;4450487;32;33747;-62
2022/06/16 04:29:20;;;;;;;7.32;3.75;;;;;;;22.09;45.52;99854.56;4451852;32;33940;-64
2022/06/16 04:31:48;;;;;;;6.85;3.83;;;;;;;22.29;45.12;99843.13;4448584;32;33892;-63
2022/06/16 04:34:17;;;;;;;5.75;3.42;;;;;;;22.23;45.62;99843.88;4444947;32;33597;-63
2022/06/16 04:36:45;;;;;;;6.30;4.07;;;;;;;22.45;45.27;99851.13;4445203;32;33955;-64
2022/06/16 04:39:13;;;;;;;6.93;4.00;;;;;;;22.59;45.79;99849.41;4451835;32;35235;-64
2022/06/16 04:41:41;;;;;;;6.78;3.58;;;;;;;22.60;46.07;99847.50;4443480;32;34007;-63
2022/06/16 04:44:10;;;;;;;6.70;4.43;;;;;;;22.71;45.63;99850.63;4448826;32;33315;-65
2022/06/16 04:46:39;;;;;;;7.12;3.80;;;;;;;22.59;44.88;99848.56;4451345;32;32615;-63
2022/06/16 04:49:10;;;;;;;8.38;3.90;;;;;;;22.44;45.74;99846.72;4452210;32;32856;-63
2022/06/16 04:51:39;;;;;;;7.07;3.40;;;;;;;22.63;45.66;99849.88;4448673;32;33405;-62
2022/06/16 04:54:07;;;;;;;7.05;4.12;;;;;;;22.81;45.18;99853.03;4448988;32;34236;-63
2022/06/16 04:56:37;;;;;;;8.10;3.60;;;;;;;22.83;44.26;99845.53;4447863;32;34545;-63
2022/06/16 04:59:05;;;;;;;7.37;4.72;;;;;;;22.89;44.16;99852.06;4449035;32;33900;-65
2022/06/16 05:01:33;;;;;;;6.95;3.55;;;;;;;23.17;43.94;99849.47;4446595;32;33696;-71
2022/06/16 05:04:02;;;;;;;6.78;4.72;;;;;;;23.11;44.11;99851.09;4449289;32;33761;-65
2022/06/16 05:06:31;;;;;;;6.65;3.60;;;;;;;23.29;43.74;99845.19;4451514;32;32428;-63
2022/06/16 05:09:02;;;;;;;6.00;3.72;;;;;;;23.17;44.29;99853.06;4448975;32;33406;-62
2022/06/16 05:11:30;;;;;;;6.18;4.07;;;;;;;23.43;43.76;99841.53;4449968;32;35030;-63
2022/06/16 05:14:01;;;;;;;11.10;4.05;;;;;;;23.60;43.28;99852.22;4451335;32;33611;-63
2022/06/16 05:16:29;;;;;;;6.68;4.62;;;;;;;23.23;42.91;99855.00;4448504;32;32660;-64
2022/06/16 05:18:59;;;;;;;7.57;4.20;;;;;;;23.06;43.67;99850.00;4451366;32;35359;-66
2022/06/16 05:21:36;;;;;;;7.12;3.92;;;;;;;23.15;42.94;99848.84;4447386;32;34027;-62
2022/06/16 05:24:05;;;;;;;7.68;4.22;;;;;;;23.44;42.79;99850.63;4451545;32;32273;-62
2022/06/16 05:26:32;;;;;;;9.75;4.05;;;;;;;23.65;42.78;99850.56;4449689;32;33508;-63
2022/06/16 05:29:01;;;;;;;8.85;4.80;;;;;;;23.80;42.73;99841.50;4441768;32;33615;-64
2022/06/16 05:31:29;;;;;;;8.57;4.28;;;;;;;23.71;42.11;99844.34;4444593;32;33750;-64
2022/06/16 05:33:57;;;;;;;7.32;4.85;;;;;;;23.71;41.63;99847.09;4445391;32;32484;-64
2022/06/16 05:36:25;;;;;;;6.90;3.87;;;;;;;23.62;41.59;99845.50;4446581;32;32484;-65
2022/06/16 05:38:53;;;;;;;6.97;4.43;;;;;;;22.78;43.21;99847.97;4448906;32;34071;-65
2022/06/16 05:41:26;;;;;;;9.82;3.87;;;;;;;23.23;42.12;99841.34;4446326;32;33912;-67
2022/06/16 05:43:54;;;;;;;7.82;3.45;;;;;;;23.35;42.50;99849.88;4451450;32;34520;-64
2022/06/16 05:46:23;;;;;;;8.02;4.05;;;;;;;23.54;43.09;99853.00;4451189;32;33779;-66
2022/06/16 05:48:52;;;;;;;9.02;4.25;;;;;;;23.75;43.17;99850.25;4451914;32;32647;-67
2022/06/16 05:51:22;;;;;;;7.40;3.40;;;;;;;23.94;42.87;99846.84;4448896;32;34995;-67
2022/06/16 05:53:50;;;;;;;8.30;3.75;;;;;;;24.01;42.53;99841.41;4444728;32;32820;-66
2022/06/16 05:56:22;;;;;;;8.77;3.50;;;;;;;24.26;42.16;99844.53;4446342;32;35777;-64
2022/06/16 05:58:49;;;;;;;7.22;3.42;;;;;;;24.18;42.14;99839.25;4450147;32;34007;-65
2022/06/16 06:01:17;;;;;;;6.43;3.45;;;;;;;24.25;41.79;99845.59;4448590;32;32967;-65
2022/06/16 06:03:47;;;;;;;6.65;3.80;;;;;;;24.40;42.40;99848.22;4448142;32;32403;-64
2022/06/16 06:06:16;;;;;;;6.78;2.87;;;;;;;24.47;42.06;99845.53;4451130;32;33854;-65
2022/06/16 06:17:29;;;;;;;7.10;3.62;;;;;;;25.05;40.81;99835.88;4449809;32;35070;-63
2022/06/16 06:20:03;;;;;;;8.23;3.50;;;;;;;24.58;41.78;99839.47;4441783;32;35025;-64
2022/06/16 06:22:31;;;;;;;6.80;3.47;;;;;;;24.92;41.09;99835.84;4449882;32;34016;-66
2022/06/16 06:25:00;;;;;;;8.20;3.20;;;;;;;25.05;40.20;99841.34;4444250;32;33822;-66
2022/06/16 06:27:41;;;;;;;6.78;2.97;;;;;;;25.24;39.51;99844.38;4449551;32;35028;-64
2022/06/16 06:30:18;;;;;;;8.15;3.45;;;;;;;25.27;40.32;99839.31;4433391;32;33585;-64
2022/06/16 06:32:46;;;;;;;6.00;2.83;;;;;;;25.27;40.55;99841.22;4440578;32;33169;-66
2022/06/16 06:35:19;;;;;;;4.93;2.85;;;;;;;25.56;39.93;99843.56;4446609;32;33668;-66
2022/06/16 06:37:47;;;;;;;7.25;3.00;;;;;;;25.67;40.43;99838.50;4448903;32;33601;-63
2022/06/16 06:40:30;;;;;;;6.72;3.30;;;;;;;25.87;40.08;99838.53;4434533;32;34135;-66
2022/06/16 06:42:58;;;;;;;6.45;3.30;;;;;;;26.04;39.76;99850.75;4447816;32;34835;-64
2022/06/16 06:45:27;;;;;;;7.75;3.00;;;;;;;25.99;40.00;99850.56;4447384;32;34755;-64
2022/06/16 06:47:55;;;;;;;6.65;3.25;;;;;;;25.94;39.80;99850.31;4445986;32;32688;-64
2022/06/16 06:50:32;;;;;;;7.12;2.87;;;;;;;26.15;39.12;99846.53;4446586;32;33500;-63
2022/06/16 06:53:00;;;;;;;9.15;3.12;;;;;;;26.19;38.10;99845.03;4442765;32;32810;-64
2022/06/16 06:55:28;;;;;;;7.20;2.83;;;;;;;26.19;38.91;99845.03;4448251;32;33660;-64
2022/06/16 06:57:56;;;;;;;8.00;2.85;;;;;;;26.21;37.78;99840.19;4443175;32;33837;-67
2022/06/16 07:00:25;;;;;;;6.53;2.83;;;;;;;26.45;38.32;99844.12;4433194;32;32478;-66
2022/06/16 07:02:53;;;;;;;4.82;2.30;;;;;;;26.45;36.97;99841.37;4440323;32;35172;-64
2022/06/16 07:05:22;;;;;;;5.35;2.67;;;;;;;26.51;37.00;99845.19;4443577;32;33555;-64
2022/06/16 07:07:50;;;;;;;5.45;2.83;;;;;;;26.53;36.92;99840.34;4446488;32;33405;-64
2022/06/16 07:10:18;;;;;;;4.47;2.60;;;;;;;26.38;36.75;99841.41;4449583;32;32871;-66
2022/06/16 07:12:46;;;;;;;5.55;3.00;;;;;;;26.31;37.60;99845.22;4447130;32;35168;-65
2022/06/16 07:15:14;;;;;;;7.82;2.80;;;;;;;26.31;36.54;99839.75;4447885;32;33443;-66
2022/06/16 07:17:41;;;;;;;7.72;2.72;;;;;;;26.59;36.85;99839.47;4449207;32;33923;-67
2022/06/16 07:20:09;;;;;;;8.07;3.28;;;;;;;26.36;37.73;99843.53;4450265;32;33043;-64
2022/06/16 07:22:37;;;;;;;7.22;3.12;;;;;;;26.21;37.25;99841.03;4450666;32;34031;-66
2022/06/16 07:25:05;;;;;;;6.78;3.00;;;;;;;26.62;36.90;99839.03;4445883;32;32130;-65
2022/06/16 07:27:33;;;;;;;8.25;3.15;;;;;;;26.34;38.03;99837.41;4446769;32;33944;-64
2022/06/16 07:30:01;;;;;;;5.62;2.95;;;;;;;26.65;36.70;99833.97;4441770;32;35328;-66
2022/06/16 07:32:29;;;;;;;8.13;3.45;;;;;;;26.48;37.25;99830.00;4443321;32;34108;-66
2022/06/16 07:34:56;;;;;;;7.62;3.10;;;;;;;26.79;35.95;99831.16;4446254;32;34539;-63
2022/06/16 07:37:24;;;;;;;7.25;2.62;;;;;;;26.63;36.47;99835.22;4449321;32;32720;-65
2022/06/16 07:39:51;;;;;;;5.57;2.50;;;;;;;26.96;37.05;99837.81;4446672;32;32930;-64
2022/06/16 07:42:19;;;;;;;5.37;2.60;;;;;;;27.07;34.82;99830.81;4448293;32;33901;-63
2022/06/16 07:44:47;;;;;;;7.00;2.80;;;;;;;27.07;35.33;99828.06;4445527;32;34623;-64
2022/06/16 07:47:14;;;;;;;6.50;2.70;;;;;;;27.11;35.40;99832.03;4448886;32;33731;-63
2022/06/16 07:49:43;;;;;;;6.93;3.30;;;;;;;27.04;35.87;99823.84;4445791;32;34663;-64
2022/06/16 07:52:10;;;;;;;8.50;2.80;;;;;;;27.04;35.76;99823.00;4451118;32;33938;-65
2022/06/16 07:54:39;;;;;;;5.95;2.65;;;;;;;27.14;35.54;99826.97;4450111;32;32289;-63
2022/06/16 07:57:22;;;;;;;9.38;2.65;;;;;;;26.98;35.02;99823.88;4449991;32;34910;-65
2022/06/16 07:59:57;;;;;;;5.07;2.30;;;;;;;27.05;35.11;99830.16;4451238;32;34889;-64
2022/06/16 08:02:27;;;;;;;5.95;2.35;;;;;;;26.95;34.73;99836.13;4448569;32;32974;-66
2022/06/16 08:04:55;;;;;;;5.90;2.80;;;;;;;27.24;32.38;99822.91;4449912;32;33704;-64
2022/06/16 08:07:23;;;;;;;5.25;2.47;;;;;;;27.56;32.67;99816.31;4448686;32;34770;-64
2022/06/16 08:09:51;;;;;;;6.87;2.40;;;;;;;27.45;32.04;99811.56;4447280;32;35069;-64
2022/06/16 08:12:20;;;;;;;7.25;2.45;;;;;;;26.41;32.82;99826.41;4447598;32;33934;-64
2022/06/16 08:14:48;;;;;;;8.13;2.50;;;;;;;26.18;32.30;99815.91;4452078;32;34474;-64
2022/06/16 08:17:21;;;;;;;5.00;2.30;;;;;;;26.24;33.08;99817.81;4448350;32;33905;-66
2022/06/16 08:19:49;;;;;;;5.78;2.80;;;;;;;26.86;32.50;99820.97;4449255;32;33757;-64
2022/06/16 08:22:17;;;;;;;5.18;2.28;;;;;;;26.58;32.47;99819.44;4448164;32;34463;-63
2022/06/16 08:24:47;;;;;;;5.45;2.20;;;;;;;26.47;33.05;99822.81;4445775;32;33858;-64
2022/06/16 08:27:17;;;;;;;4.28;1.73;;;;;;;26.56;31.06;99827.03;4452085;32;35970;-65
2022/06/16 08:29:45;;;;;;;5.25;2.10;;;;;;;26.64;29.06;99831.41;4444625;32;32500;-64
2022/06/16 08:32:15;;;;;;;4.70;1.87;;;;;;;26.36;30.49;99829.81;4448895;32;34885;-64
2022/06/16 08:34:44;;;;;;;4.82;2.00;;;;;;;26.76;30.53;99826.09;4449504;32;34801;-66
2022/06/16 08:37:12;;;;;;;3.30;1.70;;;;;;;26.44;30.99;99835.03;4450336;32;33476;-66
2022/06/16 08:39:40;;;;;;;3.67;1.90;;;;;;;26.83;28.27;99826.91;4452503;32;33798;-66
2022/06/16 08:42:25;;;;;;;4.53;2.15;;;;;;;27.05;29.42;99825.50;4453431;32;35487;-67
2022/06/16 08:45:12;;;;;;;4.18;1.90;;;;;;;27.06;31.25;99838.22;4452625;32;33722;-66
2022/06/16 08:47:45;;;;;;;4.18;2.05;;;;;;;27.01;29.59;99826.19;4451210;32;33460;-66
2022/06/16 08:50:54;;;;;;;4.20;2.30;;;;;;;27.15;29.81;99831.41;4450745;32;36368;-64
2022/06/16 08:53:49;;;;;;;6.45;2.50;;;;;;;26.95;30.42;99830.66;4428460;32;34008;-65
2022/06/16 08:56:30;;;;;;;10.00;3.22;;;;;;;27.45;30.72;99835.44;4453332;32;33693;-64
2022/06/16 08:59:14;;;;;;;4.50;2.20;;;;;;;27.29;30.99;99834.91;4452911;32;33998;-65
2022/06/16 09:01:55;;;;;;;4.00;2.20;;;;;;;27.52;29.05;99826.09;4446805;32;34028;-66
2022/06/16 09:04:48;;;;;;;4.82;2.25;;;;;;;27.85;27.81;99834.06;4453991;32;33999;-67
2022/06/16 09:07:22;;;;;;;3.92;2.05;;;;;;;28.06;29.59;99829.25;4451320;32;34482;-67
2022/06/16 09:10:17;;;;;;;7.03;2.50;;;;;;;28.12;29.01;99831.06;4452085;32;32546;-65
2022/06/16 09:12:53;;;;;;;6.37;2.50;;;;;;;27.87;27.90;99828.38;4447771;32;35109;-66
2022/06/16 09:15:27;;;;;;;6.43;2.90;;;;;;;27.91;30.21;99824.09;4444733;32;32990;-65
2022/06/16 09:18:23;;;;;;;6.07;2.60;;;;;;;28.12;30.15;99821.97;4438669;32;33737;-66
2022/06/16 09:21:03;;;;;;;13.65;3.12;;;;;;;27.81;30.02;99823.75;4449461;32;32596;-66
2022/06/16 09:23:40;;;;;;;6.57;2.95;;;;;;;28.60;28.80;99813.00;4450305;32;33932;-64
2022/06/16 09:26:17;;;;;;;7.47;2.90;;;;;;;29.01;29.17;99809.50;4448321;32;32811;-63
2022/06/16 09:29:09;;;;;;;5.45;2.55;;;;;;;28.99;29.46;99811.66;4450828;32;33700;-64
2022/06/16 09:31:49;;;;;;;6.18;2.92;;;;;;;28.62;29.88;99819.13;4450149;32;33512;-66
2022/06/16 09:34:29;;;;;;;9.65;2.65;;;;;;;28.46;30.20;99817.81;4452044;32;33667;-64
2022/06/16 09:37:02;;;;;;;6.40;2.50;;;;;;;29.40;28.53;99809.97;4440736;32;33794;-65
2022/06/16 09:39:34;;;;;;;6.12;2.65;;;;;;;29.26;27.38;99812.13;4448688;32;32975;-64
2022/06/16 09:42:35;;;;;;;8.32;2.85;;;;;;;29.52;26.96;99815.53;4450708;32;32478;-63
2022/06/16 09:45:14;;;;;;;5.57;2.08;;;;;;;29.42;27.42;99796.81;4444905;32;33520;-67
2022/06/16 09:47:51;;;;;;;3.75;1.70;;;;;;;29.39;25.65;99777.97;4442587;32;33206;-65
2022/06/16 09:50:26;;;;;;;4.30;1.62;;;;;;;29.58;26.21;99784.25;4449177;32;31945;-66
2022/06/16 09:52:59;;;;;;;3.33;1.80;;;;;;;29.28;25.07;99790.69;4450768;32;34765;-64
2022/06/16 09:55:40;;;;;;;4.65;1.70;;;;;;;29.36;26.33;99797.75;4450782;32;33958;-65
2022/06/16 09:58:13;;;;;;;3.90;1.90;;;;;;;29.09;25.42;99798.16;4448304;32;34922;-64
2022/06/16 10:00:42;;;;;;;2.75;1.67;;;;;;;29.70;24.51;99796.16;4434655;32;31719;-64
2022/06/16 10:03:40;;;;;;;3.80;1.90;;;;;;;29.91;25.00;99790.03;4452500;32;34734;-65
2022/06/16 10:06:23;;;;;;;4.65;1.80;;;;;;;30.50;23.50;99790.00;4442910;32;33602;-66
2022/06/16 10:09:11;;;;;;;3.65;1.80;;;;;;;30.00;23.79;99787.75;4450039;32;33661;-70
2022/06/16 10:12:10;;;;;;;4.18;1.80;;;;;;;30.08;24.21;99783.78;4446462;32;33167;-66
2022/06/16 10:14:48;;;;;;;3.40;1.73;;;;;;;29.78;24.47;99790.28;4438996;32;32602;-66
2022/06/16 10:17:18;;;;;;;3.75;1.90;;;;;;;30.38;23.22;99781.75;4450022;32;34582;-68
2022/06/16 10:19:46;;;;;;;5.07;1.80;;;;;;;30.26;24.51;99780.91;4445957;32;34395;-66
2022/06/16 10:22:16;;;;;;;4.10;1.73;;;;;;;30.07;23.26;99780.19;4452220;32;33282;-69
2022/06/16 10:25:02;;;;;;;3.12;1.80;;;;;;;30.35;22.81;99773.94;4450368;32;34082;-67
2022/06/16 10:27:38;;;;;;;6.15;1.85;;;;;;;30.69;24.21;99770.47;4448672;32;33784;-67
2022/06/16 10:30:07;;;;;;;4.10;1.60;;;;;;;30.51;23.81;99780.63;4448937;32;33119;-67
2022/06/16 10:32:41;;;;;;;4.57;1.80;;;;;;;30.61;23.09;99783.59;4446282;32;34647;-68
2022/06/16 10:35:20;;;;;;;4.95;1.77;;;;;;;30.46;23.37;99782.44;4445931;32;34893;-65
2022/06/16 10:37:51;;;;;;;4.20;2.25;;;;;;;31.19;21.89;99786.38;4450605;32;34154;-64
2022/06/16 10:40:27;;;;;;;4.45;2.03;;;;;;;31.23;22.02;99790.31;4451401;32;33325;-64
2022/06/16 10:43:17;;;;;;;4.60;1.90;;;;;;;31.20;22.66;99786.13;4449887;32;34281;-64
2022/06/16 10:45:59;;;;;;;3.85;1.85;;;;;;;31.40;21.16;99788.47;4450325;32;32615;-64
2022/06/16 10:48:30;;;;;;;4.15;2.08;;;;;;;31.21;22.53;99785.06;4438282;32;32379;-66
2022/06/16 10:51:07;;;;;;;3.55;1.83;;;;;;;31.31;22.09;99789.91;4451509;32;35040;-64
2022/06/16 10:53:39;;;;;;;4.22;1.65;;;;;;;31.42;22.03;99775.19;4452581;32;34332;-64
2022/06/16 10:56:15;;;;;;;4.60;1.90;;;;;;;31.64;21.81;99779.97;4450002;32;32609;-64
2022/06/16 10:59:06;;;;;;;8.15;2.45;;;;;;;31.99;22.37;99771.41;4450036;32;33778;-64
2022/06/16 11:01:56;;;;;;;4.25;1.98;;;;;;;32.15;21.76;99770.53;4449416;32;35177;-64
2022/06/16 11:04:33;;;;;;;4.70;1.85;;;;;;;32.15;21.60;99767.78;4451719;32;32314;-67
2022/06/16 11:07:01;;;;;;;2.90;1.65;;;;;;;32.32;21.77;99758.56;4448965;32;33821;-67
2022/06/16 11:09:32;;;;;;;4.28;1.85;;;;;;;31.93;22.64;99756.66;4448036;32;32804;-65
2022/06/16 11:12:15;;;;;;;3.92;1.62;;;;;;;31.75;22.74;99757.75;4449323;32;33241;-64
2022/06/16 11:15:23;;;;;;;3.92;1.87;;;;;;;32.25;21.59;99742.16;4435412;32;33547;-65
2022/06/16 11:17:55;;;;;;;3.78;1.95;;;;;;;32.34;22.04;99742.53;4388119;32;33556;-64
2022/06/16 11:20:32;;;;;;;4.95;1.70;;;;;;;32.10;22.96;99740.00;4383765;32;35263;-64
2022/06/16 11:23:00;;;;;;;6.87;2.00;;;;;;;32.17;21.22;99745.38;4415377;32;34906;-62
2022/06/16 11:25:35;;;;;;;4.55;1.70;;;;;;;31.26;22.39;99732.59;4451579;32;33417;-63
2022/06/16 11:28:06;;;;;;;4.35;1.83;;;;;;;31.95;21.05;99731.50;4454496;32;32553;-65
2022/06/16 11:30:45;;;;;;;4.40;1.75;;;;;;;32.05;21.07;99725.28;4445954;32;34096;-65
2022/06/16 11:36:41;;;;;;;5.62;2.08;;;;;;;31.66;21.32;99720.56;4447025;32;33522;-65
2022/06/16 11:39:46;;;;;;;4.57;1.85;;;;;;;32.15;21.33;99723.47;4451342;32;32613;-65
2022/06/16 11:42:26;;;;;;;;;;;;;;;31.81;21.02;99724.63;4448216;32;34061;-66
2022/06/16 11:45:02;;;;;;;2.47;1.70;;;;;;;31.92;21.33;99712.66;4450474;32;33315;-66
2022/06/16 11:47:55;;;;;;;4.62;2.37;;;;;;;32.33;20.78;99713.16;4453031;32;34868;-64
2022/06/16 11:50:44;;;;;;;3.75;1.83;;;;;;;31.55;22.70;99704.88;4451340;32;33538;-65
2022/06/16 11:53:30;;;;;;;3.62;2.00;;;;;;;32.13;21.89;99700.72;4449406;32;33996;-67
2022/06/16 11:56:04;;;;;;;3.75;1.92;;;;;;;32.17;20.99;99696.37;4456861;32;32683;-66
2022/06/16 11:58:34;;;;;;;3.83;1.55;;;;;;;32.26;21.20;99688.44;4466611;32;34315;-65
2022/06/16 12:01:16;;;;;;;4.35;1.90;;;;;;;31.75;21.72;99687.72;4448191;32;34602;-64
2022/06/16 12:04:03;;;;;;;3.85;1.90;;;;;;;31.30;21.88;99694.22;4451909;32;33933;-64
2022/06/16 12:07:00;;;;;;;6.28;1.87;;;;;;;31.46;21.12;99698.94;4450582;32;33339;-64
2022/06/16 12:09:55;;;;;;;5.87;2.08;;;;;;;31.26;22.66;99684.75;4449451;32;32237;-66
2022/06/16 12:12:34;;;;;;;3.72;1.90;;;;;;;31.28;22.75;99693.66;4441576;32;32675;-63
2022/06/16 12:15:13;;;;;;;4.22;2.17;;;;;;;31.07;22.65;99686.94;4450048;32;32339;-63
2022/06/16 12:17:56;;;;;;;5.07;2.00;;;;;;;31.71;21.72;99681.03;4448796;32;32968;-64
2022/06/16 12:20:36;;;;;;;4.12;2.12;;;;;;;31.17;22.63;99689.03;4448416;32;32066;-63
2022/06/16 12:23:16;;;;;;;4.72;2.50;;;;;;;31.18;22.69;99688.78;4445204;32;35622;-63